Burnham, Maine
Current Conditions -  °F | °C
As of 1:55 PM on Sunday 23 Nov 2014 (Local Time) from KWVL Reporting Station
Overcast Overcast  
Wind Chill: 50°   Ceiling: 3500
Heat Index: 50°   Visibility: 10mi
Dew Point: 36°   Wind: 5mph
Humidity: 58%   Direction: 240°WSW
Pressure: 30.03"   Gusts: NA
Location:  44.69°N, 69.43°W
Report Text: KWVL 231855Z 24004KT 10SM OVC035 10/02 A3003 RMK AO1
Loading
Personal Weather Stations






























Interactive Weather Map New forecast layout! Learn more

10-Day Weather Forecast

Advertisements
Track Severe Weather on mobile